Terminal Aerodrome Forecast
Issued by NWS Flagstaff, AZ

Home | Current Version | Previous Version | Text Only | Print | Product List | Glossary On
Versions: 1 2 3 4 5 6 7 8 9 10 11 12 13 14 15 16 17 18 19
000
FTUS45 KFGZ 222343
TAFFLG
TAF
KFLG 222343Z 2300/2324 23011KT P6SM FEW110 SCT200
     FM230200 VRB02KT P6SM FEW200
     FM231800 23010G17KT P6SM FEW110=

USA.gov is the U.S. government's official web portal to all federal, state and local government web resources and services.